This is the latest recevied weather packets stored in our database for station/object OK2ILA-10. If no packets are shown the sender has not sent any weather packets the latest 10 day(s).
| Time | Temp. | Humidity | Pressure | Rain* | Wind** | Luminosity | Snow |
|---|---|---|---|---|---|---|---|
| 1777628799 | 18.33° C | 42% | 1028.2 hPa | - | - | - | - |
| 1777628794 | 18.33° C | 42% | 1028.2 hPa | - | - | - | - |
| 1777628198 | 18.33° C | 42% | 1028.2 hPa | - | - | - | - |
| 1777628194 | 18.33° C | 42% | 1028.2 hPa | - | - | - | - |
| 1777627598 | 16.67° C | 45% | 1028.2 hPa | - | - | - | - |
| 1777627594 | 16.67° C | 45% | 1028.2 hPa | - | - | - | - |
| 1777626998 | 16.67° C | 44% | 1028.2 hPa | - | - | - | - |
| 1777626994 | 16.67° C | 44% | 1028.2 hPa | - | - | - | - |
| 1777626398 | 15° C | 46% | 1028.3 hPa | - | - | - | - |
| 1777626394 | 15° C | 46% | 1028.3 hPa | - | - | - | - |
| 1777625797 | 16.67° C | 44% | 1028.3 hPa | - | - | - | - |
| 1777625793 | 16.67° C | 44% | 1028.3 hPa | - | - | - | - |
| 1777625197 | 16.67° C | 45% | 1028.3 hPa | - | - | - | - |
| 1777625193 | 16.67° C | 45% | 1028.3 hPa | - | - | - | - |
| 1777624597 | 15.56° C | 46% | 1028.4 hPa | - | - | - | - |
| 1777624593 | 15.56° C | 46% | 1028.4 hPa | - | - | - | - |
| 1777623997 | 16.11° C | 47% | 1028.4 hPa | - | - | - | - |
| 1777623993 | 16.11° C | 47% | 1028.4 hPa | - | - | - | - |
| 1777623396 | 16.11° C | 47% | 1028.4 hPa | - | - | - | - |
| 1777623393 | 16.11° C | 47% | 1028.4 hPa | - | - | - | - |
| 1777622796 | 16.67° C | 48% | 1028.4 hPa | - | - | - | - |
| 1777622792 | 16.67° C | 48% | 1028.4 hPa | - | - | - | - |
| 1777622196 | 16.11° C | 49% | 1028.4 hPa | - | - | - | - |
| 1777622192 | 16.11° C | 49% | 1028.4 hPa | - | - | - | - |
| 1777621596 | 14.44° C | 52% | 1028.4 hPa | - | - | - | - |
* Rain since midnight (hover to see other rain measurements)
** Current wind speed in m/s (hover to see current wind gust speed)